createdAt,value
2019-04-16T00:00:22.671Z,3.30
2019-04-16T00:02:56.289Z,3.40
2019-04-16T00:05:29.202Z,3.40
2019-04-16T00:08:01.974Z,3.20
2019-04-16T00:10:37.828Z,3.20
2019-04-16T00:13:08.045Z,3.20
2019-04-16T00:15:40.960Z,3.20
2019-04-16T00:18:06.593Z,3.20
2019-04-16T00:20:37.979Z,3.20
2019-04-16T00:23:08.174Z,3.30
2019-04-16T00:25:36.575Z,3.10
2019-04-16T00:28:05.014Z,3.00
2019-04-16T00:30:35.743Z,3.00
2019-04-16T00:33:03.550Z,2.90
2019-04-16T00:35:31.962Z,2.90
2019-04-16T00:38:00.524Z,2.80
2019-04-16T00:40:29.012Z,2.80
2019-04-16T00:42:57.425Z,2.80
2019-04-16T00:45:25.826Z,2.50
2019-04-16T00:47:54.242Z,2.60
2019-04-16T00:50:22.629Z,2.50
2019-04-16T00:52:51.034Z,2.40
2019-04-16T00:55:19.461Z,2.40
2019-04-16T00:57:48.617Z,2.20
2019-04-16T01:00:18.127Z,2.30
2019-04-16T01:02:47.029Z,2.40
2019-04-16T01:05:15.627Z,2.30
2019-04-16T01:07:44.038Z,2.30
2019-04-16T01:10:12.591Z,2.20
2019-04-16T01:12:40.989Z,2.10
2019-04-16T01:15:09.638Z,2.20
2019-04-16T01:17:38.047Z,2.00
2019-04-16T01:20:11.662Z,2.10
2019-04-16T01:22:37.421Z,2.00
2019-04-16T01:25:06.773Z,2.10
2019-04-16T01:27:36.823Z,2.20
2019-04-16T01:30:08.042Z,2.20
2019-04-16T01:32:44.085Z,2.20
2019-04-16T01:35:19.030Z,2.30
2019-04-16T01:38:04.813Z,2.20
2019-04-16T01:40:34.870Z,2.20
2019-04-16T01:43:03.270Z,2.20
2019-04-16T01:45:31.690Z,2.10
2019-04-16T01:48:00.237Z,2.10
2019-04-16T01:50:28.691Z,2.10
2019-04-16T01:52:57.096Z,2.10
2019-04-16T01:55:26.356Z,2.10
2019-04-16T01:57:54.902Z,2.10
2019-04-16T02:00:23.303Z,2.10
2019-04-16T02:02:51.726Z,2.10
2019-04-16T02:05:20.397Z,2.00
2019-04-16T02:07:50.261Z,2.10
2019-04-16T02:10:18.665Z,2.00
2019-04-16T02:12:47.074Z,2.00
2019-04-16T02:15:15.545Z,2.00
2019-04-16T02:17:43.953Z,1.90
2019-04-16T02:20:12.892Z,1.80
2019-04-16T02:22:42.295Z,1.70
2019-04-16T02:25:13.006Z,1.70
2019-04-16T02:27:41.494Z,1.70
2019-04-16T02:30:10.078Z,1.70
2019-04-16T02:32:38.483Z,1.60
2019-04-16T02:35:07.417Z,1.50
2019-04-16T02:37:37.355Z,1.50
2019-04-16T02:40:06.895Z,1.40
2019-04-16T02:42:35.348Z,1.30
2019-04-16T02:45:04.424Z,1.50
2019-04-16T02:47:40.031Z,1.40
2019-04-16T02:50:05.293Z,1.30
2019-04-16T02:52:41.337Z,1.20
2019-04-16T02:55:29.747Z,1.30
2019-04-16T02:58:05.767Z,1.20
2019-04-16T03:00:41.651Z,1.10
2019-04-16T03:03:14.525Z,1.10
2019-04-16T03:05:44.737Z,1.00
2019-04-16T03:08:13.215Z,0.90
2019-04-16T03:10:41.803Z,0.90
2019-04-16T03:13:11.754Z,1.00
2019-04-16T03:16:02.898Z,1.00
2019-04-16T03:18:38.037Z,1.00
2019-04-16T03:21:06.442Z,1.10
2019-04-16T03:23:37.552Z,1.10
2019-04-16T03:26:04.980Z,1.00
2019-04-16T03:28:33.663Z,1.10
2019-04-16T03:31:06.890Z,1.10
2019-04-16T03:33:32.210Z,1.00
2019-04-16T03:36:00.623Z,1.10
2019-04-16T03:38:29.104Z,1.00
2019-04-16T03:40:57.505Z,1.00
2019-04-16T03:43:25.926Z,0.90
2019-04-16T03:45:54.334Z,0.80
2019-04-16T03:48:23.490Z,0.80
2019-04-16T03:50:52.883Z,0.70
2019-04-16T03:53:21.299Z,0.70
2019-04-16T03:55:49.710Z,0.70
2019-04-16T03:58:18.130Z,0.70
2019-04-16T04:00:46.534Z,0.60
2019-04-16T04:03:14.947Z,0.50
2019-04-16T04:05:44.991Z,0.40
2019-04-16T04:08:17.618Z,0.40
2019-04-16T04:10:43.853Z,0.40
2019-04-16T04:13:17.277Z,0.40
2019-04-16T04:15:42.674Z,0.40
2019-04-16T04:18:12.600Z,0.50
2019-04-16T04:20:41.265Z,0.40
2019-04-16T04:23:09.670Z,0.30
2019-04-16T04:25:38.082Z,0.40
2019-04-16T04:28:06.712Z,0.40
2019-04-16T04:30:35.405Z,0.50
2019-04-16T04:33:07.458Z,0.50
2019-04-16T04:35:33.954Z,0.50
2019-04-16T04:38:04.210Z,0.50
2019-04-16T04:40:43.854Z,0.40
2019-04-16T04:43:02.662Z,0.50
2019-04-16T04:45:31.071Z,0.50
2019-04-16T04:47:59.476Z,0.50
2019-04-16T04:50:27.890Z,0.60
2019-04-16T04:52:56.320Z,0.60
2019-04-16T04:55:26.916Z,0.70
2019-04-16T04:57:54.858Z,0.70
2019-04-16T05:00:23.272Z,0.80
2019-04-16T05:02:51.672Z,0.80
2019-04-16T05:05:27.465Z,0.90
2019-04-16T05:07:59.698Z,0.90
2019-04-16T05:10:26.002Z,0.90
2019-04-16T05:12:54.437Z,0.90
2019-04-16T05:15:22.997Z,1.00
2019-04-16T05:17:51.437Z,1.00
2019-04-16T05:20:19.852Z,1.10
2019-04-16T05:22:50.604Z,1.10
2019-04-16T05:25:18.409Z,1.20
2019-04-16T05:27:46.873Z,1.30
2019-04-16T05:30:20.103Z,1.40
2019-04-16T05:32:45.554Z,1.40
2019-04-16T05:35:14.037Z,1.50
2019-04-16T05:37:42.527Z,1.60
2019-04-16T05:40:11.283Z,1.70
2019-04-16T05:42:39.696Z,1.70
2019-04-16T05:45:08.654Z,1.80
2019-04-16T05:47:37.052Z,1.90
2019-04-16T05:50:06.020Z,1.90
2019-04-16T05:52:35.956Z,2.00
2019-04-16T05:55:23.038Z,2.00
2019-04-16T05:57:57.914Z,2.10
2019-04-16T06:00:30.345Z,2.30
2019-04-16T06:02:58.750Z,2.30
2019-04-16T06:05:28.150Z,2.20
2019-04-16T06:07:58.361Z,2.40
2019-04-16T06:10:26.766Z,2.50
2019-04-16T06:12:59.574Z,2.60
2019-04-16T06:15:35.666Z,2.70
2019-04-16T06:18:18.333Z,2.80
2019-04-16T06:20:52.925Z,2.90
2019-04-16T06:23:39.265Z,3.00
2019-04-16T06:26:16.333Z,3.10
2019-04-16T06:29:02.052Z,3.30
2019-04-16T06:31:32.103Z,3.50
2019-04-16T06:34:11.414Z,3.60
2019-04-16T06:36:47.538Z,3.80
2019-04-16T06:39:35.870Z,4.00
2019-04-16T06:42:12.112Z,4.30
2019-04-16T06:44:51.084Z,4.50
2019-04-16T06:47:41.735Z,4.70
2019-04-16T06:50:09.781Z,4.90
2019-04-16T06:52:56.382Z,5.20
2019-04-16T06:55:26.444Z,5.40
2019-04-16T06:57:56.493Z,5.60
2019-04-16T07:00:26.542Z,5.90
2019-04-16T07:03:03.089Z,6.20
2019-04-16T07:05:33.341Z,6.40
2019-04-16T07:08:21.861Z,6.60
2019-04-16T07:11:00.605Z,6.90
2019-04-16T07:13:29.021Z,7.20
2019-04-16T07:15:57.779Z,7.50
2019-04-16T07:18:26.408Z,7.80
2019-04-16T07:20:54.866Z,8.10
2019-04-16T07:23:24.748Z,8.40
2019-04-16T07:25:53.522Z,8.70
2019-04-16T07:28:25.827Z,9.00
2019-04-16T07:31:20.333Z,10.40
2019-04-16T07:33:53.851Z,12.40
2019-04-16T07:36:27.296Z,15.10
2019-04-16T07:39:05.039Z,17.70
2019-04-16T07:41:52.264Z,19.70
2019-04-16T07:44:36.549Z,21.90
2019-04-16T07:47:06.361Z,22.60
2019-04-16T07:49:39.209Z,23.80
2019-04-16T07:52:20.962Z,24.50
2019-04-16T07:55:07.350Z,25.80
2019-04-16T07:57:35.772Z,27.90
2019-04-16T08:00:09.510Z,27.50
2019-04-16T08:02:37.163Z,27.00
2019-04-16T08:05:09.223Z,27.30
2019-04-16T08:07:38.003Z,27.20
2019-04-16T08:10:06.902Z,26.90
2019-04-16T08:12:36.463Z,27.90
2019-04-16T08:15:13.856Z,28.60
2019-04-16T08:17:35.473Z,28.20
2019-04-16T08:20:04.325Z,28.00
2019-04-16T08:22:32.802Z,28.30
2019-04-16T08:25:04.058Z,29.20
2019-04-16T08:27:32.664Z,28.80
2019-04-16T08:30:03.738Z,27.20
2019-04-16T08:32:31.222Z,27.40
2019-04-16T08:34:59.650Z,28.40
2019-04-16T08:37:28.065Z,29.30
2019-04-16T08:39:56.489Z,30.40
2019-04-16T08:42:29.047Z,31.70
2019-04-16T08:44:55.085Z,32.20
2019-04-16T08:47:23.490Z,31.90
2019-04-16T08:49:54.197Z,31.60
2019-04-16T08:52:22.054Z,32.20
2019-04-16T08:54:54.557Z,32.30
2019-04-16T08:57:20.729Z,33.20
2019-04-16T08:59:49.143Z,32.60
2019-04-16T09:02:17.563Z,33.50
2019-04-16T09:04:45.979Z,33.40
2019-04-16T09:07:32.213Z,32.80
2019-04-16T09:10:15.677Z,32.00
2019-04-16T09:12:32.168Z,32.20
2019-04-16T09:15:00.700Z,32.20
2019-04-16T09:17:30.981Z,32.30
2019-04-16T09:20:01.713Z,32.40
2019-04-16T09:22:31.171Z,32.60
2019-04-16T09:25:17.547Z,33.60
2019-04-16T09:27:47.606Z,33.40
2019-04-16T09:30:18.107Z,33.80
2019-04-16T09:33:00.378Z,33.70
2019-04-16T09:35:28.803Z,33.90
2019-04-16T09:38:01.640Z,33.30
2019-04-16T09:40:31.775Z,32.70
2019-04-16T09:43:15.663Z,33.30
2019-04-16T09:45:33.911Z,34.30
2019-04-16T09:48:03.708Z,34.20
2019-04-16T09:50:32.398Z,33.40
2019-04-16T09:53:01.967Z,33.70
2019-04-16T09:55:30.601Z,32.20
2019-04-16T09:58:05.749Z,32.70
2019-04-16T10:00:35.224Z,32.40
2019-04-16T10:03:05.354Z,33.30
2019-04-16T10:05:33.762Z,32.00
2019-04-16T10:08:02.187Z,30.70
2019-04-16T10:10:30.691Z,30.80
2019-04-16T10:12:59.283Z,30.40
2019-04-16T10:15:27.766Z,31.40
2019-04-16T10:17:58.631Z,31.50
2019-04-16T10:20:26.410Z,30.30
2019-04-16T10:22:54.969Z,28.70
2019-04-16T10:25:23.373Z,29.20
2019-04-16T10:27:53.428Z,28.30
2019-04-16T10:30:23.679Z,27.00
2019-04-16T10:32:52.169Z,26.50
2019-04-16T10:35:20.685Z,26.30
2019-04-16T10:37:49.093Z,26.70
2019-04-16T10:40:28.558Z,26.70
2019-04-16T10:43:15.205Z,27.20
2019-04-16T10:46:03.357Z,26.60
2019-04-16T10:48:36.253Z,27.00
2019-04-16T10:51:08.825Z,28.60
2019-04-16T10:53:38.901Z,29.40
2019-04-16T10:56:25.385Z,29.40
2019-04-16T10:58:58.457Z,29.80
2019-04-16T11:01:35.200Z,30.20
2019-04-16T11:04:20.823Z,28.70
2019-04-16T11:06:51.010Z,28.50
2019-04-16T11:09:19.522Z,29.50
2019-04-16T11:11:47.941Z,29.00
2019-04-16T11:14:16.381Z,28.40
2019-04-16T11:16:46.540Z,28.30
2019-04-16T11:19:15.006Z,29.80
2019-04-16T11:21:43.421Z,29.90
2019-04-16T11:24:11.917Z,29.60
2019-04-16T11:26:40.455Z,28.00
2019-04-16T11:29:08.892Z,26.10
2019-04-16T11:31:37.958Z,26.20
2019-04-16T11:34:07.020Z,24.90
2019-04-16T11:36:35.796Z,24.70
2019-04-16T11:39:06.472Z,23.70
2019-04-16T11:41:34.932Z,23.30
2019-04-16T11:44:14.792Z,22.60
2019-04-16T11:46:33.533Z,23.10
2019-04-16T11:49:01.997Z,23.20
2019-04-16T11:51:30.402Z,22.70
2019-04-16T11:53:58.926Z,22.70
2019-04-16T11:56:27.349Z,22.30
2019-04-16T11:58:57.618Z,23.00
2019-04-16T12:01:30.580Z,22.90
2019-04-16T12:04:00.634Z,23.30
2019-04-16T12:06:36.498Z,23.70
2019-04-16T12:09:18.006Z,23.70
2019-04-16T12:11:54.097Z,24.20
2019-04-16T12:14:32.207Z,23.10
2019-04-16T12:16:58.932Z,23.50
2019-04-16T12:19:45.757Z,24.40
2019-04-16T12:22:15.863Z,24.00
2019-04-16T12:24:48.614Z,23.60
2019-04-16T12:27:30.698Z,22.90
2019-04-16T12:30:17.248Z,22.80
2019-04-16T12:33:07.444Z,22.10
2019-04-16T12:35:36.840Z,21.70
2019-04-16T12:38:13.158Z,22.20
2019-04-16T12:40:47.885Z,22.40
2019-04-16T12:43:18.006Z,23.30
2019-04-16T12:46:04.640Z,23.10
2019-04-16T12:48:46.763Z,23.20
2019-04-16T12:51:19.768Z,23.80
2019-04-16T12:53:55.591Z,24.00
2019-04-16T12:56:40.166Z,24.60
2019-04-16T12:59:09.202Z,25.30
2019-04-16T13:01:42.013Z,25.00
2019-04-16T13:04:17.848Z,26.00
2019-04-16T13:06:59.717Z,26.20
2019-04-16T13:09:32.714Z,26.50
2019-04-16T13:12:10.301Z,26.80
2019-04-16T13:15:00.393Z,25.80
2019-04-16T13:17:27.760Z,25.30
2019-04-16T13:20:13.993Z,25.70
2019-04-16T13:22:46.994Z,26.10
2019-04-16T13:25:17.037Z,25.50
2019-04-16T13:27:47.909Z,25.80
2019-04-16T13:30:16.674Z,25.30
2019-04-16T13:32:45.089Z,24.60
2019-04-16T13:35:13.648Z,25.30
2019-04-16T13:37:42.069Z,25.40
2019-04-16T13:40:13.793Z,25.30
2019-04-16T13:42:42.213Z,25.50
2019-04-16T13:45:21.835Z,25.80
2019-04-16T13:47:55.649Z,25.80
2019-04-16T13:50:29.803Z,25.50
2019-04-16T13:53:02.574Z,25.40
2019-04-16T13:55:32.639Z,25.80
2019-04-16T13:58:08.989Z,25.50
2019-04-16T14:00:57.222Z,24.70
2019-04-16T14:03:25.645Z,24.90
2019-04-16T14:05:54.062Z,25.50
2019-04-16T14:08:22.490Z,25.90
2019-04-16T14:10:51.814Z,25.10
2019-04-16T14:13:20.235Z,24.70
2019-04-16T14:15:48.637Z,24.90
2019-04-16T14:18:17.061Z,24.70
2019-04-16T14:20:45.471Z,24.20
2019-04-16T14:23:13.891Z,23.40
2019-04-16T14:25:42.307Z,23.40
2019-04-16T14:28:10.857Z,23.60
2019-04-16T14:30:42.683Z,23.40
2019-04-16T14:33:12.770Z,23.80
2019-04-16T14:35:41.186Z,24.20
2019-04-16T14:38:09.640Z,24.00
2019-04-16T14:40:39.673Z,23.90
2019-04-16T14:43:08.399Z,23.70
2019-04-16T14:45:56.807Z,22.90
2019-04-16T14:48:10.194Z,22.40
2019-04-16T14:50:38.746Z,22.00
2019-04-16T14:53:07.151Z,21.40
2019-04-16T14:55:42.164Z,21.50
2019-04-16T14:58:17.945Z,21.40
2019-04-16T15:00:59.834Z,21.50
2019-04-16T15:03:32.607Z,21.60
2019-04-16T15:06:11.214Z,21.80
2019-04-16T15:08:56.373Z,22.00
2019-04-16T15:11:26.429Z,22.30
2019-04-16T15:13:59.425Z,22.40
2019-04-16T15:16:45.718Z,22.30
2019-04-16T15:19:31.129Z,22.30
2019-04-16T15:22:01.214Z,22.20
2019-04-16T15:24:34.286Z,21.80
2019-04-16T15:27:19.409Z,21.50
2019-04-16T15:29:52.530Z,21.00
2019-04-16T15:32:42.002Z,21.00
2019-04-16T15:35:15.194Z,21.00
2019-04-16T15:37:48.387Z,20.70
2019-04-16T15:40:30.551Z,20.80
2019-04-16T15:43:03.336Z,20.50
2019-04-16T15:45:33.399Z,20.30
2019-04-16T15:48:14.867Z,20.20
2019-04-16T15:50:50.058Z,20.00
2019-04-16T15:53:38.201Z,19.90
2019-04-16T15:56:23.622Z,19.80
2019-04-16T15:58:53.665Z,19.90
2019-04-16T16:01:41.878Z,19.80
2019-04-16T16:04:11.928Z,19.80
2019-04-16T16:06:44.565Z,19.80
2019-04-16T16:09:23.636Z,19.90
2019-04-16T16:12:02.997Z,19.90
2019-04-16T16:14:34.656Z,19.80
2019-04-16T16:17:01.715Z,19.90
2019-04-16T16:19:30.125Z,19.90
2019-04-16T16:21:58.551Z,19.90
2019-04-16T16:24:27.001Z,19.90
2019-04-16T16:26:55.422Z,19.80
2019-04-16T16:29:23.830Z,19.80
2019-04-16T16:31:52.242Z,19.80
2019-04-16T16:34:20.653Z,19.70
2019-04-16T16:36:49.066Z,19.50
2019-04-16T16:39:17.679Z,19.50
2019-04-16T16:41:46.654Z,19.50
2019-04-16T16:44:15.278Z,19.40
2019-04-16T16:46:57.214Z,19.40
2019-04-16T16:49:21.454Z,19.40
2019-04-16T16:52:06.579Z,19.20
2019-04-16T16:54:34.983Z,19.20
2019-04-16T16:57:08.162Z,19.10
2019-04-16T16:59:39.838Z,19.00
2019-04-16T17:02:19.097Z,18.90
2019-04-16T17:04:49.145Z,18.80
2019-04-16T17:07:18.048Z,18.60
2019-04-16T17:09:46.530Z,18.60
2019-04-16T17:12:14.934Z,18.50
2019-04-16T17:14:43.337Z,18.40
2019-04-16T17:17:14.903Z,18.30
2019-04-16T17:19:42.069Z,18.10
2019-04-16T17:22:10.549Z,18.00
2019-04-16T17:24:38.958Z,17.80
2019-04-16T17:27:07.365Z,17.60
2019-04-16T17:29:35.847Z,17.50
2019-04-16T17:32:04.394Z,17.30
2019-04-16T17:34:32.803Z,17.10
2019-04-16T17:37:01.206Z,17.00
2019-04-16T17:39:42.373Z,16.80
2019-04-16T17:42:08.993Z,16.70
2019-04-16T17:44:41.993Z,16.50
2019-04-16T17:47:32.517Z,16.30
2019-04-16T17:50:03.720Z,16.10
2019-04-16T17:52:33.241Z,15.90
2019-04-16T17:55:12.069Z,15.70
2019-04-16T17:57:57.415Z,15.60
2019-04-16T18:00:42.749Z,15.40
2019-04-16T18:03:29.033Z,15.20
2019-04-16T18:06:02.065Z,15.10
2019-04-16T18:08:38.336Z,14.90
2019-04-16T18:11:10.694Z,14.80
2019-04-16T18:13:43.439Z,14.70
2019-04-16T18:16:16.404Z,14.50
2019-04-16T18:18:46.611Z,14.40
2019-04-16T18:21:16.702Z,14.30
2019-04-16T18:23:52.734Z,14.20
2019-04-16T18:26:28.756Z,14.00
2019-04-16T18:29:10.561Z,13.80
2019-04-16T18:31:46.787Z,13.60
2019-04-16T18:34:25.981Z,13.40
2019-04-16T18:37:12.418Z,13.30
2019-04-16T18:39:42.470Z,13.20
2019-04-16T18:42:15.451Z,13.00
2019-04-16T18:44:57.806Z,12.80
2019-04-16T18:47:27.858Z,12.70
2019-04-16T18:49:57.913Z,12.60
2019-04-16T18:52:26.327Z,12.40
2019-04-16T18:54:54.741Z,12.30
2019-04-16T18:57:23.163Z,12.20
2019-04-16T18:59:51.567Z,12.10
2019-04-16T19:02:20.242Z,12.00
2019-04-16T19:04:51.033Z,11.80
2019-04-16T19:07:19.729Z,11.70
2019-04-16T19:09:48.151Z,11.70
2019-04-16T19:12:16.557Z,11.50
2019-04-16T19:14:44.970Z,11.50
2019-04-16T19:17:16.389Z,11.30
2019-04-16T19:19:45.428Z,11.20
2019-04-16T19:22:13.657Z,11.10
2019-04-16T19:24:42.061Z,11.00
2019-04-16T19:27:10.496Z,10.90
2019-04-16T19:29:38.905Z,10.90
2019-04-16T19:32:07.465Z,10.80
2019-04-16T19:34:40.970Z,10.60
2019-04-16T19:37:06.181Z,10.50
2019-04-16T19:39:34.578Z,10.50
2019-04-16T19:42:02.989Z,10.40
2019-04-16T19:44:33.493Z,10.30
2019-04-16T19:47:01.581Z,10.30
2019-04-16T19:49:30.016Z,10.20
2019-04-16T19:51:58.449Z,10.10
2019-04-16T19:54:26.925Z,10.00
2019-04-16T19:56:55.351Z,10.00
2019-04-16T19:59:23.754Z,10.00
2019-04-16T20:01:55.970Z,9.90
2019-04-16T20:04:22.282Z,9.80
2019-04-16T20:06:50.701Z,9.70
2019-04-16T20:09:19.197Z,9.70
2019-04-16T20:11:47.604Z,9.50
2019-04-16T20:14:16.023Z,9.40
2019-04-16T20:16:44.453Z,9.40
2019-04-16T20:19:12.847Z,9.20
2019-04-16T20:21:42.801Z,9.30
2019-04-16T20:24:11.201Z,9.30
2019-04-16T20:26:39.621Z,9.20
2019-04-16T20:29:08.531Z,9.20
2019-04-16T20:31:36.988Z,9.00
2019-04-16T20:34:05.403Z,8.90
2019-04-16T20:36:33.807Z,8.80
2019-04-16T20:39:02.233Z,8.90
2019-04-16T20:41:30.626Z,8.90
2019-04-16T20:43:59.037Z,8.90
2019-04-16T20:46:27.449Z,8.80
2019-04-16T20:49:07.801Z,8.70
2019-04-16T20:51:26.538Z,8.60
2019-04-16T20:53:55.785Z,8.60
2019-04-16T20:56:24.181Z,8.60
2019-04-16T20:58:52.593Z,8.50
2019-04-16T21:01:33.006Z,8.50
2019-04-16T21:04:03.800Z,8.60
2019-04-16T21:06:26.747Z,8.50
2019-04-16T21:08:56.911Z,8.50
2019-04-16T21:11:25.297Z,8.40
2019-04-16T21:13:53.705Z,8.30
2019-04-16T21:16:22.131Z,8.20
2019-04-16T21:18:50.617Z,8.10
2019-04-16T21:21:19.602Z,8.00
2019-04-16T21:23:49.157Z,8.10
2019-04-16T21:26:20.010Z,8.10
2019-04-16T21:29:14.240Z,8.20
2019-04-16T21:31:48.873Z,8.10
2019-04-16T21:34:33.989Z,8.20
2019-04-16T21:37:16.032Z,8.20
2019-04-16T21:39:57.942Z,8.10
2019-04-16T21:42:26.351Z,8.10
2019-04-16T21:44:54.768Z,8.10
2019-04-16T21:47:24.322Z,8.10
2019-04-16T21:49:53.400Z,8.10
2019-04-16T21:52:23.265Z,8.00
2019-04-16T21:54:51.945Z,7.90
2019-04-16T21:57:20.352Z,7.90
2019-04-16T21:59:50.252Z,7.90
2019-04-16T22:02:20.542Z,8.00
2019-04-16T22:04:49.031Z,8.00
2019-04-16T22:07:17.433Z,8.00
2019-04-16T22:09:45.850Z,8.00
2019-04-16T22:12:15.525Z,8.00
2019-04-16T22:14:44.409Z,8.10
2019-04-16T22:17:12.813Z,8.10
2019-04-16T22:19:53.250Z,8.10
2019-04-16T22:22:11.687Z,8.10
2019-04-16T22:24:41.553Z,8.10
2019-04-16T22:27:09.969Z,8.10
2019-04-16T22:29:38.369Z,8.00
2019-04-16T22:32:06.777Z,8.10
2019-04-16T22:34:35.181Z,8.00
2019-04-16T22:37:03.589Z,7.90
2019-04-16T22:39:36.405Z,8.00
2019-04-16T22:42:15.501Z,7.90
2019-04-16T22:45:03.589Z,7.90
2019-04-16T22:47:36.601Z,7.80
2019-04-16T22:50:16.391Z,7.70
2019-04-16T22:52:36.838Z,7.60
2019-04-16T22:55:06.199Z,7.50
2019-04-16T22:57:34.614Z,7.50
2019-04-16T23:00:03.467Z,7.40
2019-04-16T23:02:31.875Z,7.40
2019-04-16T23:05:00.803Z,7.50
2019-04-16T23:07:29.372Z,7.40
2019-04-16T23:09:57.826Z,7.40
2019-04-16T23:12:28.050Z,7.50
2019-04-16T23:14:56.701Z,7.40
2019-04-16T23:17:26.831Z,7.40
2019-04-16T23:19:55.575Z,7.40
2019-04-16T23:22:24.117Z,7.40
2019-04-16T23:24:55.446Z,7.30
2019-04-16T23:27:22.661Z,7.20
2019-04-16T23:29:51.089Z,7.20
2019-04-16T23:32:19.498Z,7.10
2019-04-16T23:34:47.904Z,7.10
2019-04-16T23:37:16.310Z,7.10
2019-04-16T23:39:44.718Z,7.10
2019-04-16T23:42:13.211Z,7.20
2019-04-16T23:44:54.624Z,7.10
2019-04-16T23:47:42.858Z,6.90
2019-04-16T23:50:15.077Z,6.90
2019-04-16T23:52:45.129Z,6.90
2019-04-16T23:55:17.554Z,6.90
2019-04-16T23:58:02.007Z,6.90
